Northern Highway — 3EVE6 — position and weather

sailwx.info

Track history (hours):
 
Tides and Currents Weather Stations Pressure Air Temp Water Temp Dewpoint Dewpoint Depression Visibility Wind Speed Wind Dir Waves Ship Positions

Northern Highway

Last reported at 2015-Jul-10 13:06 UTC. Time now 2015-Aug-02 12:23 UTC.
Position N 35°08' E 140°41'.
Warning: this ship's position is 22 days out of date.

Length 188 m; draft 7.9 m.

Type: Cargo ship. MMSI: 371608000.

Date/timePositionNaut miles runAvg speedWind from/ knotsBaromVisibWave heightAir tempDewpointWater temp
2015-Jul-10 13:06N 35°08' E 140°41'1017.3
2015-Jul-10 12:33N 35°04' E 140°31'1717.0
2015-Jul-10 11:33N 34°56' E 140°12'1716.4
2015-Jul-10 10:30N 34°50' E 139°52'1313.8
2015-Jul-10 09:33N 34°59' E 139°41'1414.2
2015-Jul-10 08:33N 35°12' E 139°46'1211.6
2015-Jul-10 07:33N 35°24' E 139°42'4 3.7
2015-Jul-10 06:31N 35°27' E 139°41'0 0.0
2015-Jul-10 05:31N 35°27' E 139°41'0 0.0
2015-Jul-10 04:31N 35°27' E 139°41'0 0.0
2015-Jul-10 03:31N 35°27' E 139°41'0 0.0
2015-Jul-10 02:31N 35°27' E 139°41'0 0.0
2015-Jul-10 01:31N 35°27' E 139°41'0 0.0
2015-Jul-10 00:31N 35°27' E 139°41'0 0.0
2015-Jul-09 23:31N 35°27' E 139°41'0 0.0
2015-Jul-09 22:31N 35°27' E 139°41'2 2.2
2015-Jul-09 21:33N 35°26' E 139°43'1 0.7
2015-Jul-09 20:31N 35°26' E 139°44'0 0.0
2015-Jul-09 19:31N 35°26' E 139°44'1 1.1
2015-Jul-09 18:33N 35°25' E 139°44'1111.4
2015-Jul-09 17:33N 35°14' E 139°47'1110.9
2015-Jul-09 16:33N 35°03' E 139°44'1514.7
2015-Jul-09 15:33N 34°48' E 139°44'3114.0
2015-Jul-09 13:20N 34°33' E 139°11'3415.9
2015-Jul-09 11:11N 34°26' E 138°30'  
2015-Jul-04 20:14N 31°06' E 122°25'913.3
2015-Jul-04 19:33N 31°08' E 122°15'1514.8
2015-Jul-04 18:34N 31°15' E 121°59'1313.3
2015-Jul-04 17:33N 31°19' E 121°44'3 3.1
2015-Jul-04 16:33N 31°19' E 121°41'0 0.0
2015-Jul-04 15:33N 31°19' E 121°41'0 0.0
2015-Jul-04 14:33N 31°19' E 121°41'0 0.0
2015-Jul-04 13:27N 31°19' E 121°41'0 0.0
2015-Jul-04 12:33N 31°19' E 121°41'0 0.0
2015-Jul-04 11:33N 31°19' E 121°41'0 0.0
2015-Jul-04 10:33N 31°19' E 121°41'0 0.0
2015-Jul-04 09:33N 31°19' E 121°41'0 0.0
2015-Jul-04 08:33N 31°19' E 121°41'0 0.0
2015-Jul-04 07:33N 31°19' E 121°41'0 0.0
2015-Jul-04 06:27N 31°19' E 121°41'0 0.0
2015-Jul-04 05:30N 31°19' E 121°41'0 0.0
2015-Jul-04 04:33N 31°19' E 121°41'0 0.0
2015-Jul-04 03:33N 31°19' E 121°41'6 5.6
2015-Jul-04 02:34N 31°18' E 121°47'1514.7
2015-Jul-04 01:33N 31°14' E 122°04'1010.4
2015-Jul-04 00:33N 31°09' E 122°14'1010.3
2015-Jul-03 23:33N 31°07' E 122°26'6 6.1
2015-Jul-03 22:33N 31°07' E 122°33'10 9.7
2015-Jul-03 21:33N 31°07' E 122°44'3 2.4
2015-Jul-03 20:29N 31°08' E 122°47'0 0.1
2015-Jul-03 19:32N 31°08' E 122°47'0 0.1
2015-Jul-03 18:32N 31°08' E 122°47'0 0.0
2015-Jul-03 12:05N 31°08' E 122°47'2 4.4
2015-Jul-03 11:33N 31°06' E 122°48'2311.7
2015-Jul-03 09:33N 30°46' E 123°02'1515.2
2015-Jul-03 08:33N 30°31' E 123°05'2115.7
2015-Jul-03 07:14N 30°10' E 123°06'1116.4
2015-Jul-03 06:33N 29°59' E 123°03'2117.0
2015-Jul-03 05:18N 29°40' E 122°54'1417.0
2015-Jul-03 04:29N 29°27' E 122°47'1917.5
2015-Jul-03 03:24N 29°09' E 122°39'1817.5
2015-Jul-03 02:22N 28°53' E 122°30'32917.4
2015-Jul-02 07:31N 24°18' E 119°10'5217.7
2015-Jul-02 04:33N 23°39' E 118°31'  
Track history (hours):
 
Tides and Currents Weather Stations Pressure Air Temp Water Temp Dewpoint Dewpoint Depression Visibility Wind Speed Wind Dir Waves Ship Positions

Northern Highway

Last reported at 2015-Jul-10 13:06 UTC. Time now 2015-Aug-02 12:23 UTC.
Position N 35°08' E 140°41'.
Warning: this ship's position is 22 days out of date.

Length 188 m; draft 7.9 m.

Type: Cargo ship. MMSI: 371608000.

Date/timePositionNaut miles runAvg speedWind from/ knotsBaromVisibWave heightAir tempDewpointWater temp
2015-Jul-10 13:06N 35°08' E 140°41'1017.3
2015-Jul-10 12:33N 35°04' E 140°31'1717.0
2015-Jul-10 11:33N 34°56' E 140°12'1716.4
2015-Jul-10 10:30N 34°50' E 139°52'1313.8
2015-Jul-10 09:33N 34°59' E 139°41'1414.2
2015-Jul-10 08:33N 35°12' E 139°46'1211.6
2015-Jul-10 07:33N 35°24' E 139°42'4 3.7
2015-Jul-10 06:31N 35°27' E 139°41'0 0.0
2015-Jul-10 05:31N 35°27' E 139°41'0 0.0
2015-Jul-10 04:31N 35°27' E 139°41'0 0.0
2015-Jul-10 03:31N 35°27' E 139°41'0 0.0
2015-Jul-10 02:31N 35°27' E 139°41'0 0.0
2015-Jul-10 01:31N 35°27' E 139°41'0 0.0
2015-Jul-10 00:31N 35°27' E 139°41'0 0.0
2015-Jul-09 23:31N 35°27' E 139°41'0 0.0
2015-Jul-09 22:31N 35°27' E 139°41'2 2.2
2015-Jul-09 21:33N 35°26' E 139°43'1 0.7
2015-Jul-09 20:31N 35°26' E 139°44'0 0.0
2015-Jul-09 19:31N 35°26' E 139°44'1 1.1
2015-Jul-09 18:33N 35°25' E 139°44'1111.4
2015-Jul-09 17:33N 35°14' E 139°47'1110.9
2015-Jul-09 16:33N 35°03' E 139°44'1514.7
2015-Jul-09 15:33N 34°48' E 139°44'3114.0
2015-Jul-09 13:20N 34°33' E 139°11'3415.9
2015-Jul-09 11:11N 34°26' E 138°30'  
2015-Jul-04 20:14N 31°06' E 122°25'913.3
2015-Jul-04 19:33N 31°08' E 122°15'1514.8
2015-Jul-04 18:34N 31°15' E 121°59'1313.3
2015-Jul-04 17:33N 31°19' E 121°44'3 3.1
2015-Jul-04 16:33N 31°19' E 121°41'0 0.0
2015-Jul-04 15:33N 31°19' E 121°41'0 0.0
2015-Jul-04 14:33N 31°19' E 121°41'0 0.0
2015-Jul-04 13:27N 31°19' E 121°41'0 0.0
2015-Jul-04 12:33N 31°19' E 121°41'0 0.0
2015-Jul-04 11:33N 31°19' E 121°41'0 0.0
2015-Jul-04 10:33N 31°19' E 121°41'0 0.0
2015-Jul-04 09:33N 31°19' E 121°41'0 0.0
2015-Jul-04 08:33N 31°19' E 121°41'0 0.0
2015-Jul-04 07:33N 31°19' E 121°41'0 0.0
2015-Jul-04 06:27N 31°19' E 121°41'0 0.0
2015-Jul-04 05:30N 31°19' E 121°41'0 0.0
2015-Jul-04 04:33N 31°19' E 121°41'0 0.0
2015-Jul-04 03:33N 31°19' E 121°41'6 5.6
2015-Jul-04 02:34N 31°18' E 121°47'1514.7
2015-Jul-04 01:33N 31°14' E 122°04'1010.4
2015-Jul-04 00:33N 31°09' E 122°14'1010.3
2015-Jul-03 23:33N 31°07' E 122°26'6 6.1
2015-Jul-03 22:33N 31°07' E 122°33'10 9.7
2015-Jul-03 21:33N 31°07' E 122°44'3 2.4
2015-Jul-03 20:29N 31°08' E 122°47'0 0.1
2015-Jul-03 19:32N 31°08' E 122°47'0 0.1
2015-Jul-03 18:32N 31°08' E 122°47'0 0.0
2015-Jul-03 12:05N 31°08' E 122°47'2 4.4
2015-Jul-03 11:33N 31°06' E 122°48'2311.7
2015-Jul-03 09:33N 30°46' E 123°02'1515.2
2015-Jul-03 08:33N 30°31' E 123°05'2115.7
2015-Jul-03 07:14N 30°10' E 123°06'1116.4
2015-Jul-03 06:33N 29°59' E 123°03'2117.0
2015-Jul-03 05:18N 29°40' E 122°54'1417.0
2015-Jul-03 04:29N 29°27' E 122°47'1917.5
2015-Jul-03 03:24N 29°09' E 122°39'1817.5
2015-Jul-03 02:22N 28°53' E 122°30'32917.4
2015-Jul-02 07:31N 24°18' E 119°10'5217.7
2015-Jul-02 04:33N 23°39' E 118°31'  

Dump ship's entire track history